sensor_id;sensor_type;location;lat;lon;timestamp;pressure;altitude;pressure_sealevel;temperature;humidity
13456;BME280;6800;50.940;6.940;2024-01-16T00:01:13;100160.66;;;10.25;48.08
13456;BME280;6800;50.940;6.940;2024-01-16T00:05:16;100151.69;;;10.29;48.27
13456;BME280;6800;50.940;6.940;2024-01-16T00:09:17;100142.44;;;10.37;47.81
13456;BME280;6800;50.940;6.940;2024-01-16T00:13:19;100148.22;;;10.15;48.29
13456;BME280;6800;50.940;6.940;2024-01-16T00:17:24;100146.28;;;10.05;48.66
13456;BME280;6800;50.940;6.940;2024-01-16T00:21:26;100154.09;;;10.05;48.71
13456;BME280;6800;50.940;6.940;2024-01-16T00:25:27;100148.31;;;10.00;48.65
13456;BME280;6800;50.940;6.940;2024-01-16T00:29:29;100155.13;;;9.88;48.96
13456;BME280;6800;50.940;6.940;2024-01-16T00:33:32;100160.25;;;9.90;48.72
13456;BME280;6800;50.940;6.940;2024-01-16T00:37:37;100167.09;;;9.64;49.14
13456;BME280;6800;50.940;6.940;2024-01-16T00:41:40;100171.16;;;9.68;49.35
13456;BME280;6800;50.940;6.940;2024-01-16T00:45:42;100182.59;;;9.80;48.80
13456;BME280;6800;50.940;6.940;2024-01-16T00:49:43;100183.03;;;10.14;48.07
13456;BME280;6800;50.940;6.940;2024-01-16T00:53:45;100182.22;;;10.00;48.54
13456;BME280;6800;50.940;6.940;2024-01-16T00:57:46;100184.44;;;10.06;48.54
13456;BME280;6800;50.940;6.940;2024-01-16T01:01:52;100193.44;;;10.29;48.19
13456;BME280;6800;50.940;6.940;2024-01-16T01:05:54;100201.31;;;10.00;48.67
13456;BME280;6800;50.940;6.940;2024-01-16T01:09:56;100201.13;;;9.47;49.13
13456;BME280;6800;50.940;6.940;2024-01-16T01:13:57;100200.69;;;9.69;48.98
13456;BME280;6800;50.940;6.940;2024-01-16T01:17:59;100202.91;;;9.75;49.23
13456;BME280;6800;50.940;6.940;2024-01-16T01:22:00;100212.56;;;9.44;49.52
13456;BME280;6800;50.940;6.940;2024-01-16T01:26:06;100212.78;;;9.84;49.00
13456;BME280;6800;50.940;6.940;2024-01-16T01:30:09;100215.34;;;10.12;47.97
13456;BME280;6800;50.940;6.940;2024-01-16T01:34:14;100218.06;;;9.96;48.03
13456;BME280;6800;50.940;6.940;2024-01-16T01:38:16;100215.38;;;9.70;48.72
13456;BME280;6800;50.940;6.940;2024-01-16T01:42:23;100214.53;;;9.83;48.15
13456;BME280;6800;50.940;6.940;2024-01-16T01:46:27;100216.72;;;10.32;47.01
13456;BME280;6800;50.940;6.940;2024-01-16T01:50:29;100216.78;;;10.17;47.49
13456;BME280;6800;50.940;6.940;2024-01-16T01:54:35;100219.06;;;10.08;47.33
13456;BME280;6800;50.940;6.940;2024-01-16T01:58:38;100235.25;;;9.28;49.59
13456;BME280;6800;50.940;6.940;2024-01-16T02:02:41;100223.34;;;9.24;49.84
13456;BME280;6800;50.940;6.940;2024-01-16T02:06:43;100225.78;;;9.56;49.62
13456;BME280;6800;50.940;6.940;2024-01-16T02:10:49;100227.44;;;9.57;49.38
13456;BME280;6800;50.940;6.940;2024-01-16T02:14:53;100231.66;;;9.59;49.27
13456;BME280;6800;50.940;6.940;2024-01-16T02:18:54;100231.28;;;9.79;49.35
13456;BME280;6800;50.940;6.940;2024-01-16T02:23:00;100230.78;;;9.30;49.73
13456;BME280;6800;50.940;6.940;2024-01-16T02:27:04;100239.94;;;9.66;49.77
13456;BME280;6800;50.940;6.940;2024-01-16T02:31:07;100240.47;;;9.99;48.97
13456;BME280;6800;50.940;6.940;2024-01-16T02:35:09;100238.44;;;9.76;48.65
13456;BME280;6800;50.940;6.940;2024-01-16T02:39:12;100239.72;;;9.40;49.69
13456;BME280;6800;50.940;6.940;2024-01-16T02:43:15;100233.06;;;9.79;48.73
13456;BME280;6800;50.940;6.940;2024-01-16T02:47:18;100233.44;;;9.73;49.01
13456;BME280;6800;50.940;6.940;2024-01-16T02:51:21;100222.91;;;9.74;47.70
13456;BME280;6800;50.940;6.940;2024-01-16T02:55:22;100235.00;;;10.03;47.79
13456;BME280;6800;50.940;6.940;2024-01-16T02:59:24;100235.75;;;9.91;47.77
13456;BME280;6800;50.940;6.940;2024-01-16T03:03:29;100233.03;;;10.07;47.86
13456;BME280;6800;50.940;6.940;2024-01-16T03:07:30;100233.22;;;9.76;48.60
13456;BME280;6800;50.940;6.940;2024-01-16T03:11:32;100230.44;;;9.79;48.86
13456;BME280;6800;50.940;6.940;2024-01-16T03:15:34;100233.53;;;10.13;47.79
13456;BME280;6800;50.940;6.940;2024-01-16T03:19:36;100218.72;;;9.86;48.30
13456;BME280;6800;50.940;6.940;2024-01-16T03:23:41;100218.91;;;9.83;48.12
13456;BME280;6800;50.940;6.940;2024-01-16T03:27:43;100235.84;;;9.90;48.39
13456;BME280;6800;50.940;6.940;2024-01-16T03:31:47;100238.25;;;10.07;47.91
13456;BME280;6800;50.940;6.940;2024-01-16T03:35:50;100235.25;;;9.99;48.18
13456;BME280;6800;50.940;6.940;2024-01-16T03:39:52;100230.25;;;9.68;48.68
13456;BME280;6800;50.940;6.940;2024-01-16T03:43:53;100229.50;;;9.94;47.82
13456;BME280;6800;50.940;6.940;2024-01-16T03:47:58;100229.25;;;10.12;47.67
13456;BME280;6800;50.940;6.940;2024-01-16T03:52:01;100221.69;;;10.22;47.55
13456;BME280;6800;50.940;6.940;2024-01-16T03:56:04;100220.63;;;10.39;47.19
13456;BME280;6800;50.940;6.940;2024-01-16T04:00:07;100225.63;;;10.15;47.91
13456;BME280;6800;50.940;6.940;2024-01-16T04:04:08;100220.03;;;9.79;48.61
13456;BME280;6800;50.940;6.940;2024-01-16T04:08:11;100215.72;;;10.20;47.39
13456;BME280;6800;50.940;6.940;2024-01-16T04:12:13;100223.56;;;9.92;48.62
13456;BME280;6800;50.940;6.940;2024-01-16T04:16:15;100221.59;;;9.95;48.22
13456;BME280;6800;50.940;6.940;2024-01-16T04:20:17;100223.75;;;9.75;48.86
13456;BME280;6800;50.940;6.940;2024-01-16T04:24:18;100210.44;;;9.51;49.57
13456;BME280;6800;50.940;6.940;2024-01-16T04:28:20;100217.22;;;9.96;48.68
13456;BME280;6800;50.940;6.940;2024-01-16T04:32:23;100210.06;;;10.13;48.27
13456;BME280;6800;50.940;6.940;2024-01-16T04:36:27;100219.00;;;9.53;48.75
13456;BME280;6800;50.940;6.940;2024-01-16T04:40:30;100226.34;;;10.03;48.07
13456;BME280;6800;50.940;6.940;2024-01-16T04:44:32;100223.09;;;9.85;48.36
13456;BME280;6800;50.940;6.940;2024-01-16T04:48:34;100225.16;;;9.66;48.56
13456;BME280;6800;50.940;6.940;2024-01-16T04:52:36;100228.41;;;9.84;47.99
13456;BME280;6800;50.940;6.940;2024-01-16T04:56:38;100224.19;;;9.53;48.25
13456;BME280;6800;50.940;6.940;2024-01-16T05:00:41;100224.38;;;9.78;48.20
13456;BME280;6800;50.940;6.940;2024-01-16T05:04:43;100217.97;;;9.41;48.78
13456;BME280;6800;50.940;6.940;2024-01-16T05:08:45;100224.38;;;9.78;47.72
13456;BME280;6800;50.940;6.940;2024-01-16T05:12:46;100226.34;;;9.75;48.06
13456;BME280;6800;50.940;6.940;2024-01-16T05:16:48;100215.47;;;9.68;48.02
13456;BME280;6800;50.940;6.940;2024-01-16T05:20:50;100219.38;;;9.75;48.56
13456;BME280;6800;50.940;6.940;2024-01-16T05:24:52;100220.47;;;9.99;47.63
13456;BME280;6800;50.940;6.940;2024-01-16T05:28:53;100217.91;;;10.13;47.55
13456;BME280;6800;50.940;6.940;2024-01-16T05:32:55;100212.25;;;10.05;47.40
13456;BME280;6800;50.940;6.940;2024-01-16T05:36:57;100202.78;;;10.04;47.66
13456;BME280;6800;50.940;6.940;2024-01-16T05:40:58;100201.09;;;10.03;47.48
13456;BME280;6800;50.940;6.940;2024-01-16T05:45:00;100204.53;;;10.18;46.91
13456;BME280;6800;50.940;6.940;2024-01-16T05:49:02;100197.38;;;10.22;47.18
13456;BME280;6800;50.940;6.940;2024-01-16T05:53:05;100191.63;;;9.88;47.67
13456;BME280;6800;50.940;6.940;2024-01-16T05:57:07;100192.00;;;9.82;47.53
13456;BME280;6800;50.940;6.940;2024-01-16T06:01:08;100189.31;;;9.70;47.95
13456;BME280;6800;50.940;6.940;2024-01-16T06:05:10;100185.16;;;10.08;46.37
13456;BME280;6800;50.940;6.940;2024-01-16T06:09:13;100189.56;;;9.93;46.94
13456;BME280;6800;50.940;6.940;2024-01-16T06:13:18;100179.03;;;9.95;46.61
13456;BME280;6800;50.940;6.940;2024-01-16T06:17:27;100184.81;;;10.00;48.19
13456;BME280;6800;50.940;6.940;2024-01-16T06:21:30;100186.41;;;10.02;46.59
13456;BME280;6800;50.940;6.940;2024-01-16T06:25:37;100186.84;;;10.09;46.15
13456;BME280;6800;50.940;6.940;2024-01-16T06:29:39;100197.09;;;9.98;46.67
13456;BME280;6800;50.940;6.940;2024-01-16T06:33:41;100195.81;;;10.05;46.23
13456;BME280;6800;50.940;6.940;2024-01-16T06:37:43;100192.66;;;9.86;46.57
13456;BME280;6800;50.940;6.940;2024-01-16T06:41:45;100193.94;;;9.93;45.85
13456;BME280;6800;50.940;6.940;2024-01-16T06:45:47;100196.81;;;9.88;46.45
13456;BME280;6800;50.940;6.940;2024-01-16T06:49:48;100202.31;;;9.98;45.00
13456;BME280;6800;50.940;6.940;2024-01-16T06:53:51;100196.72;;;10.18;44.44
13456;BME280;6800;50.940;6.940;2024-01-16T06:57:53;100200.38;;;10.15;44.84
13456;BME280;6800;50.940;6.940;2024-01-16T07:01:56;100206.22;;;9.91;44.60
13456;BME280;6800;50.940;6.940;2024-01-16T07:06:01;100202.06;;;9.74;44.79
13456;BME280;6800;50.940;6.940;2024-01-16T07:10:06;100197.34;;;9.67;44.35
13456;BME280;6800;50.940;6.940;2024-01-16T07:14:19;100209.16;;;9.58;45.17
13456;BME280;6800;50.940;6.940;2024-01-16T07:18:23;100214.34;;;10.00;44.02
13456;BME280;6800;50.940;6.940;2024-01-16T07:22:24;100212.75;;;9.70;44.32
13456;BME280;6800;50.940;6.940;2024-01-16T07:26:26;100218.72;;;9.72;44.33
13456;BME280;6800;50.940;6.940;2024-01-16T07:30:27;100225.69;;;9.99;43.97
13456;BME280;6800;50.940;6.940;2024-01-16T07:34:29;100229.88;;;10.02;43.62
13456;BME280;6800;50.940;6.940;2024-01-16T07:38:33;100238.53;;;9.88;43.59
13456;BME280;6800;50.940;6.940;2024-01-16T07:42:35;100247.41;;;9.86;43.86
13456;BME280;6800;50.940;6.940;2024-01-16T07:46:38;100243.19;;;9.97;43.82
13456;BME280;6800;50.940;6.940;2024-01-16T07:50:39;100244.22;;;9.67;44.00
13456;BME280;6800;50.940;6.940;2024-01-16T07:54:43;100245.00;;;10.11;42.79
13456;BME280;6800;50.940;6.940;2024-01-16T07:58:48;100241.03;;;9.76;43.34
13456;BME280;6800;50.940;6.940;2024-01-16T08:02:49;100250.34;;;10.08;42.78
13456;BME280;6800;50.940;6.940;2024-01-16T08:06:53;100254.91;;;9.90;43.13
13456;BME280;6800;50.940;6.940;2024-01-16T08:10:57;100250.94;;;9.71;43.49
13456;BME280;6800;50.940;6.940;2024-01-16T08:15:00;100255.56;;;9.80;43.41
13456;BME280;6800;50.940;6.940;2024-01-16T08:19:02;100254.63;;;9.95;42.42
13456;BME280;6800;50.940;6.940;2024-01-16T08:23:05;100256.66;;;10.46;42.11
13456;BME280;6800;50.940;6.940;2024-01-16T08:27:06;100261.56;;;10.24;42.00
13456;BME280;6800;50.940;6.940;2024-01-16T08:31:08;100265.06;;;10.37;41.84
13456;BME280;6800;50.940;6.940;2024-01-16T08:35:10;100277.94;;;10.12;41.72
13456;BME280;6800;50.940;6.940;2024-01-16T08:39:12;100283.53;;;10.34;42.00
13456;BME280;6800;50.940;6.940;2024-01-16T08:43:13;100274.84;;;10.74;40.01
13456;BME280;6800;50.940;6.940;2024-01-16T08:47:15;100279.84;;;10.51;40.63
13456;BME280;6800;50.940;6.940;2024-01-16T08:51:16;100279.63;;;10.68;40.00
13456;BME280;6800;50.940;6.940;2024-01-16T08:55:18;100272.41;;;10.45;39.88
13456;BME280;6800;50.940;6.940;2024-01-16T08:59:21;100268.28;;;10.55;40.11
13456;BME280;6800;50.940;6.940;2024-01-16T09:03:22;100255.75;;;10.74;39.61
13456;BME280;6800;50.940;6.940;2024-01-16T09:07:26;100270.53;;;10.87;39.48
13456;BME280;6800;50.940;6.940;2024-01-16T09:11:29;100260.59;;;11.19;38.41
13456;BME280;6800;50.940;6.940;2024-01-16T09:15:31;100274.53;;;11.06;37.84
13456;BME280;6800;50.940;6.940;2024-01-16T09:19:36;100272.19;;;11.15;38.43
13456;BME280;6800;50.940;6.940;2024-01-16T09:23:37;100268.16;;;11.10;37.77
13456;BME280;6800;50.940;6.940;2024-01-16T09:27:40;100272.47;;;11.11;38.28
13456;BME280;6800;50.940;6.940;2024-01-16T09:31:42;100278.03;;;11.19;37.77
13456;BME280;6800;50.940;6.940;2024-01-16T09:35:44;100282.28;;;11.20;37.76
13456;BME280;6800;50.940;6.940;2024-01-16T09:39:46;100279.03;;;11.04;38.46
13456;BME280;6800;50.940;6.940;2024-01-16T09:43:50;100296.31;;;11.19;38.60
13456;BME280;6800;50.940;6.940;2024-01-16T09:47:53;100285.38;;;11.39;37.97
13456;BME280;6800;50.940;6.940;2024-01-16T09:51:56;100280.66;;;11.31;38.31
13456;BME280;6800;50.940;6.940;2024-01-16T09:56:02;100282.25;;;11.46;37.67
13456;BME280;6800;50.940;6.940;2024-01-16T10:00:07;100275.59;;;11.16;37.74
13456;BME280;6800;50.940;6.940;2024-01-16T10:04:13;100262.53;;;11.80;37.27
13456;BME280;6800;50.940;6.940;2024-01-16T10:08:16;100271.31;;;11.79;36.47
13456;BME280;6800;50.940;6.940;2024-01-16T10:12:17;100268.16;;;11.49;37.66
13456;BME280;6800;50.940;6.940;2024-01-16T10:16:20;100260.44;;;11.98;36.50
13456;BME280;6800;50.940;6.940;2024-01-16T10:20:33;100258.66;;;11.98;35.91
13456;BME280;6800;50.940;6.940;2024-01-16T10:24:35;100250.81;;;12.71;35.62
13456;BME280;6800;50.940;6.940;2024-01-16T10:28:41;100235.41;;;13.37;33.89
13456;BME280;6800;50.940;6.940;2024-01-16T10:32:45;100234.16;;;13.76;34.26
13456;BME280;6800;50.940;6.940;2024-01-16T10:36:50;100231.22;;;13.35;34.06
13456;BME280;6800;50.940;6.940;2024-01-16T10:41:12;100219.22;;;13.76;32.68
13456;BME280;6800;50.940;6.940;2024-01-16T10:45:18;100223.69;;;13.19;34.11
13456;BME280;6800;50.940;6.940;2024-01-16T10:49:23;100210.13;;;13.25;33.64
13456;BME280;6800;50.940;6.940;2024-01-16T10:53:34;100210.81;;;13.16;33.22
13456;BME280;6800;50.940;6.940;2024-01-16T10:57:39;100199.78;;;13.00;33.66
13456;BME280;6800;50.940;6.940;2024-01-16T11:01:43;100207.81;;;13.99;32.49
13456;BME280;6800;50.940;6.940;2024-01-16T11:05:47;100202.00;;;14.61;31.34
13456;BME280;6800;50.940;6.940;2024-01-16T11:09:49;100201.88;;;15.56;29.48
13456;BME280;6800;50.940;6.940;2024-01-16T11:13:52;100195.13;;;15.22;30.08
13456;BME280;6800;50.940;6.940;2024-01-16T11:17:55;100193.97;;;14.62;30.68
13456;BME280;6800;50.940;6.940;2024-01-16T11:21:58;100198.72;;;13.92;31.95
13456;BME280;6800;50.940;6.940;2024-01-16T11:26:30;100204.47;;;12.84;33.18
13456;BME280;6800;50.940;6.940;2024-01-16T11:30:35;100201.53;;;13.34;32.87
13456;BME280;6800;50.940;6.940;2024-01-16T11:38:45;100221.03;;;12.61;34.63
13456;BME280;6800;50.940;6.940;2024-01-16T11:42:50;100211.09;;;12.29;34.62
13456;BME280;6800;50.940;6.940;2024-01-16T11:47:00;100215.59;;;12.27;33.96
13456;BME280;6800;50.940;6.940;2024-01-16T11:51:29;100200.63;;;12.77;34.13
13456;BME280;6800;50.940;6.940;2024-01-16T11:55:32;100208.97;;;12.34;33.88
13456;BME280;6800;50.940;6.940;2024-01-16T12:03:46;100183.34;;;11.91;34.57
13456;BME280;6800;50.940;6.940;2024-01-16T12:07:49;100180.63;;;11.92;34.27
13456;BME280;6800;50.940;6.940;2024-01-16T12:11:59;100181.00;;;12.11;34.36
13456;BME280;6800;50.940;6.940;2024-01-16T12:16:03;100170.16;;;11.92;34.82
13456;BME280;6800;50.940;6.940;2024-01-16T12:20:19;100151.69;;;12.42;33.88
13456;BME280;6800;50.940;6.940;2024-01-16T12:24:21;100159.09;;;11.89;34.63
13456;BME280;6800;50.940;6.940;2024-01-16T12:28:23;100145.81;;;12.39;33.89
13456;BME280;6800;50.940;6.940;2024-01-16T12:32:33;100145.25;;;11.99;34.93
13456;BME280;6800;50.940;6.940;2024-01-16T12:36:36;100135.06;;;11.58;34.81
13456;BME280;6800;50.940;6.940;2024-01-16T12:40:42;100129.25;;;12.04;34.31
13456;BME280;6800;50.940;6.940;2024-01-16T12:44:47;100132.13;;;12.12;33.98
13456;BME280;6800;50.940;6.940;2024-01-16T12:48:49;100129.72;;;12.21;33.79
13456;BME280;6800;50.940;6.940;2024-01-16T12:53:07;100128.31;;;11.92;33.79
13456;BME280;6800;50.940;6.940;2024-01-16T12:57:09;100131.97;;;12.02;34.26
13456;BME280;6800;50.940;6.940;2024-01-16T13:01:26;100122.66;;;11.98;34.11
13456;BME280;6800;50.940;6.940;2024-01-16T13:05:40;100111.47;;;11.96;33.65
13456;BME280;6800;50.940;6.940;2024-01-16T13:09:43;100105.75;;;11.91;33.95
13456;BME280;6800;50.940;6.940;2024-01-16T13:13:48;100108.06;;;11.83;33.89
13456;BME280;6800;50.940;6.940;2024-01-16T13:17:50;100108.00;;;12.08;33.66
13456;BME280;6800;50.940;6.940;2024-01-16T13:21:52;100114.72;;;11.01;35.42
13456;BME280;6800;50.940;6.940;2024-01-16T13:25:58;100111.91;;;11.16;34.57
13456;BME280;6800;50.940;6.940;2024-01-16T13:30:01;100100.59;;;11.16;34.20
13456;BME280;6800;50.940;6.940;2024-01-16T13:34:04;100098.50;;;11.33;34.08
13456;BME280;6800;50.940;6.940;2024-01-16T13:38:07;100102.72;;;10.85;35.06
13456;BME280;6800;50.940;6.940;2024-01-16T13:42:09;100103.03;;;10.93;35.19
13456;BME280;6800;50.940;6.940;2024-01-16T13:46:13;100100.28;;;10.82;35.16
13456;BME280;6800;50.940;6.940;2024-01-16T13:50:23;100087.88;;;11.11;34.67
13456;BME280;6800;50.940;6.940;2024-01-16T13:54:26;100095.19;;;10.93;34.87
13456;BME280;6800;50.940;6.940;2024-01-16T13:58:28;100092.47;;;11.20;34.60
13456;BME280;6800;50.940;6.940;2024-01-16T14:02:30;100085.06;;;11.14;34.36
13456;BME280;6800;50.940;6.940;2024-01-16T14:06:32;100081.16;;;10.69;35.03
13456;BME280;6800;50.940;6.940;2024-01-16T14:10:56;100079.09;;;10.74;35.04
13456;BME280;6800;50.940;6.940;2024-01-16T14:14:57;100079.69;;;10.65;35.16
13456;BME280;6800;50.940;6.940;2024-01-16T14:19:01;100070.22;;;10.64;35.21
13456;BME280;6800;50.940;6.940;2024-01-16T14:23:03;100065.19;;;10.74;34.70
13456;BME280;6800;50.940;6.940;2024-01-16T14:27:05;100069.56;;;10.73;34.56
13456;BME280;6800;50.940;6.940;2024-01-16T14:31:08;100066.19;;;10.34;34.90
13456;BME280;6800;50.940;6.940;2024-01-16T14:35:12;100066.97;;;10.61;34.43
13456;BME280;6800;50.940;6.940;2024-01-16T14:39:15;100062.38;;;10.64;34.44
13456;BME280;6800;50.940;6.940;2024-01-16T14:43:23;100066.13;;;10.60;34.33
13456;BME280;6800;50.940;6.940;2024-01-16T14:47:25;100069.53;;;10.48;34.94
13456;BME280;6800;50.940;6.940;2024-01-16T14:51:26;100060.53;;;10.27;34.86
13456;BME280;6800;50.940;6.940;2024-01-16T14:55:29;100059.06;;;10.23;34.80
13456;BME280;6800;50.940;6.940;2024-01-16T14:59:30;100047.78;;;10.23;34.76
13456;BME280;6800;50.940;6.940;2024-01-16T15:03:32;100046.13;;;10.22;34.80
13456;BME280;6800;50.940;6.940;2024-01-16T15:07:36;100041.78;;;10.08;34.89
13456;BME280;6800;50.940;6.940;2024-01-16T15:11:39;100033.56;;;10.14;34.90
13456;BME280;6800;50.940;6.940;2024-01-16T15:15:41;100021.50;;;9.99;34.93
13456;BME280;6800;50.940;6.940;2024-01-16T15:19:44;100022.69;;;9.13;36.60
13456;BME280;6800;50.940;6.940;2024-01-16T15:23:46;100017.81;;;9.21;36.38
13456;BME280;6800;50.940;6.940;2024-01-16T15:27:48;100020.75;;;9.58;35.72
13456;BME280;6800;50.940;6.940;2024-01-16T15:31:56;100020.78;;;9.70;36.01
13456;BME280;6800;50.940;6.940;2024-01-16T15:35:57;100025.72;;;9.75;35.57
13456;BME280;6800;50.940;6.940;2024-01-16T15:39:59;100032.44;;;9.24;35.71
13456;BME280;6800;50.940;6.940;2024-01-16T15:44:01;100038.97;;;9.58;35.51
13456;BME280;6800;50.940;6.940;2024-01-16T15:48:12;100040.00;;;9.55;35.74
13456;BME280;6800;50.940;6.940;2024-01-16T15:52:14;100031.28;;;9.42;35.85
13456;BME280;6800;50.940;6.940;2024-01-16T15:56:18;100040.31;;;9.36;35.85
13456;BME280;6800;50.940;6.940;2024-01-16T16:00:20;100046.25;;;9.38;35.97
13456;BME280;6800;50.940;6.940;2024-01-16T16:04:23;100052.91;;;9.16;36.42
13456;BME280;6800;50.940;6.940;2024-01-16T16:08:25;100044.25;;;9.15;35.62
13456;BME280;6800;50.940;6.940;2024-01-16T16:12:27;100045.25;;;9.27;36.22
13456;BME280;6800;50.940;6.940;2024-01-16T16:16:30;100065.81;;;9.17;35.98
13456;BME280;6800;50.940;6.940;2024-01-16T16:20:36;100063.09;;;9.19;37.03
13456;BME280;6800;50.940;6.940;2024-01-16T16:25:03;100064.50;;;9.10;37.30
13456;BME280;6800;50.940;6.940;2024-01-16T16:29:07;100076.97;;;9.05;37.15
13456;BME280;6800;50.940;6.940;2024-01-16T16:33:10;100083.25;;;9.01;36.84
13456;BME280;6800;50.940;6.940;2024-01-16T16:37:13;100080.88;;;8.98;36.34
13456;BME280;6800;50.940;6.940;2024-01-16T16:41:15;100068.28;;;8.77;36.22
13456;BME280;6800;50.940;6.940;2024-01-16T16:45:18;100069.16;;;9.05;36.57
13456;BME280;6800;50.940;6.940;2024-01-16T16:49:20;100071.84;;;9.04;36.28
13456;BME280;6800;50.940;6.940;2024-01-16T16:53:23;100078.00;;;9.03;36.49
13456;BME280;6800;50.940;6.940;2024-01-16T16:57:33;100066.16;;;8.97;36.82
13456;BME280;6800;50.940;6.940;2024-01-16T17:01:35;100064.38;;;8.70;36.84
13456;BME280;6800;50.940;6.940;2024-01-16T17:05:40;100059.75;;;8.75;37.19
13456;BME280;6800;50.940;6.940;2024-01-16T17:09:42;100057.03;;;8.62;37.09
13456;BME280;6800;50.940;6.940;2024-01-16T17:13:44;100049.72;;;8.83;36.97
13456;BME280;6800;50.940;6.940;2024-01-16T17:17:50;100052.25;;;8.98;36.67
13456;BME280;6800;50.940;6.940;2024-01-16T17:21:53;100057.72;;;8.80;37.94
13456;BME280;6800;50.940;6.940;2024-01-16T17:25:56;100045.56;;;8.50;37.56
13456;BME280;6800;50.940;6.940;2024-01-16T17:29:59;100044.72;;;8.80;37.56
13456;BME280;6800;50.940;6.940;2024-01-16T17:34:02;100042.75;;;8.69;37.76
13456;BME280;6800;50.940;6.940;2024-01-16T17:38:04;100027.50;;;8.63;37.80
13456;BME280;6800;50.940;6.940;2024-01-16T17:42:08;100019.34;;;8.83;37.38
13456;BME280;6800;50.940;6.940;2024-01-16T17:46:12;100006.69;;;8.77;37.31
13456;BME280;6800;50.940;6.940;2024-01-16T17:50:13;100003.91;;;8.66;37.06
13456;BME280;6800;50.940;6.940;2024-01-16T17:54:15;100005.31;;;8.86;37.00
13456;BME280;6800;50.940;6.940;2024-01-16T17:58:18;100002.78;;;8.56;38.24
13456;BME280;6800;50.940;6.940;2024-01-16T18:02:23;100004.63;;;8.54;37.99
13456;BME280;6800;50.940;6.940;2024-01-16T18:06:25;100000.44;;;8.65;38.16
13456;BME280;6800;50.940;6.940;2024-01-16T18:10:28;99994.72;;;8.60;37.92
13456;BME280;6800;50.940;6.940;2024-01-16T18:14:31;99993.97;;;8.73;37.63
13456;BME280;6800;50.940;6.940;2024-01-16T18:18:34;99994.50;;;8.63;37.53
13456;BME280;6800;50.940;6.940;2024-01-16T18:22:39;99982.06;;;8.54;38.52
13456;BME280;6800;50.940;6.940;2024-01-16T18:26:45;99986.97;;;8.59;38.00
13456;BME280;6800;50.940;6.940;2024-01-16T18:30:50;99982.78;;;8.28;38.78
13456;BME280;6800;50.940;6.940;2024-01-16T18:34:53;99978.41;;;7.99;38.82
13456;BME280;6800;50.940;6.940;2024-01-16T18:38:55;99954.81;;;8.32;38.58
13456;BME280;6800;50.940;6.940;2024-01-16T18:42:57;99952.19;;;8.18;39.18
13456;BME280;6800;50.940;6.940;2024-01-16T18:46:58;99951.69;;;8.41;38.36
13456;BME280;6800;50.940;6.940;2024-01-16T18:51:08;99949.16;;;7.96;39.49
13456;BME280;6800;50.940;6.940;2024-01-16T18:55:13;99946.53;;;7.96;39.41
13456;BME280;6800;50.940;6.940;2024-01-16T18:59:20;99956.88;;;7.67;39.82
13456;BME280;6800;50.940;6.940;2024-01-16T19:03:23;99944.19;;;7.77;39.74
13456;BME280;6800;50.940;6.940;2024-01-16T19:07:25;99943.69;;;7.70;40.33
13456;BME280;6800;50.940;6.940;2024-01-16T19:11:27;99938.38;;;7.87;39.63
13456;BME280;6800;50.940;6.940;2024-01-16T19:15:31;99943.63;;;8.16;39.04
13456;BME280;6800;50.940;6.940;2024-01-16T19:19:34;99941.09;;;8.00;39.29
13456;BME280;6800;50.940;6.940;2024-01-16T19:23:37;99937.06;;;8.24;39.04
13456;BME280;6800;50.940;6.940;2024-01-16T19:27:39;99937.97;;;8.09;39.65
13456;BME280;6800;50.940;6.940;2024-01-16T19:31:45;99932.03;;;8.07;38.93
13456;BME280;6800;50.940;6.940;2024-01-16T19:35:47;99927.66;;;7.48;40.53
13456;BME280;6800;50.940;6.940;2024-01-16T19:39:49;99926.81;;;7.63;40.07
13456;BME280;6800;50.940;6.940;2024-01-16T19:43:51;99911.53;;;7.57;39.98
13456;BME280;6800;50.940;6.940;2024-01-16T19:47:53;99907.84;;;7.61;39.92
13456;BME280;6800;50.940;6.940;2024-01-16T19:51:55;99904.69;;;7.56;40.73
13456;BME280;6800;50.940;6.940;2024-01-16T19:55:59;99895.75;;;8.06;40.14
13456;BME280;6800;50.940;6.940;2024-01-16T20:00:07;99884.94;;;7.54;40.07
13456;BME280;6800;50.940;6.940;2024-01-16T20:04:12;99883.75;;;6.98;41.56
13456;BME280;6800;50.940;6.940;2024-01-16T20:08:14;99863.03;;;7.44;40.70
13456;BME280;6800;50.940;6.940;2024-01-16T20:12:17;99878.63;;;7.28;40.45
13456;BME280;6800;50.940;6.940;2024-01-16T20:16:39;99865.63;;;7.73;40.03
13456;BME280;6800;50.940;6.940;2024-01-16T20:20:41;99865.91;;;7.83;40.11
13456;BME280;6800;50.940;6.940;2024-01-16T20:24:43;99854.91;;;7.64;40.31
13456;BME280;6800;50.940;6.940;2024-01-16T20:28:45;99870.44;;;7.65;40.03
13456;BME280;6800;50.940;6.940;2024-01-16T20:32:48;99863.88;;;7.44;40.95
13456;BME280;6800;50.940;6.940;2024-01-16T20:36:55;99868.28;;;7.72;40.39
13456;BME280;6800;50.940;6.940;2024-01-16T20:40:57;99873.13;;;7.19;41.59
13456;BME280;6800;50.940;6.940;2024-01-16T20:44:58;99865.22;;;7.36;40.96
13456;BME280;6800;50.940;6.940;2024-01-16T20:49:02;99865.25;;;7.20;41.20
13456;BME280;6800;50.940;6.940;2024-01-16T20:53:05;99866.66;;;7.55;40.31
13456;BME280;6800;50.940;6.940;2024-01-16T20:57:10;99866.31;;;7.61;40.32
13456;BME280;6800;50.940;6.940;2024-01-16T21:01:12;99852.25;;;7.65;40.19
13456;BME280;6800;50.940;6.940;2024-01-16T21:05:15;99850.81;;;7.60;39.64
13456;BME280;6800;50.940;6.940;2024-01-16T21:09:18;99849.72;;;7.64;39.94
13456;BME280;6800;50.940;6.940;2024-01-16T21:13:22;99840.63;;;7.57;40.12
13456;BME280;6800;50.940;6.940;2024-01-16T21:17:28;99843.63;;;7.35;41.00
13456;BME280;6800;50.940;6.940;2024-01-16T21:21:31;99835.34;;;7.29;40.10
13456;BME280;6800;50.940;6.940;2024-01-16T21:25:32;99828.53;;;7.12;40.91
13456;BME280;6800;50.940;6.940;2024-01-16T21:29:35;99810.72;;;7.06;41.05
13456;BME280;6800;50.940;6.940;2024-01-16T21:33:37;99801.25;;;7.35;39.70
13456;BME280;6800;50.940;6.940;2024-01-16T21:37:39;99798.41;;;7.39;40.33
13456;BME280;6800;50.940;6.940;2024-01-16T21:41:41;99782.59;;;7.28;40.49
13456;BME280;6800;50.940;6.940;2024-01-16T21:45:44;99779.59;;;7.36;40.03
13456;BME280;6800;50.940;6.940;2024-01-16T21:49:46;99771.66;;;7.23;39.80